createdAt,value
2019-01-08T00:00:38.509Z,7.42
2019-01-08T00:01:38.306Z,7.55
2019-01-08T00:02:38.365Z,7.52
2019-01-08T00:03:38.249Z,7.52
2019-01-08T00:04:38.282Z,7.57
2019-01-08T00:05:38.190Z,7.62
2019-01-08T00:06:38.298Z,7.58
2019-01-08T00:07:38.112Z,7.62
2019-01-08T00:08:40.166Z,7.60
2019-01-08T00:09:38.061Z,7.66
2019-01-08T00:10:38.121Z,7.71
2019-01-08T00:11:37.997Z,7.63
2019-01-08T00:12:39.096Z,7.73
2019-01-08T00:13:37.938Z,7.73
2019-01-08T00:14:44.649Z,7.76
2019-01-08T00:15:37.887Z,7.77
2019-01-08T00:16:38.001Z,7.73
2019-01-08T00:17:37.816Z,7.73
2019-01-08T00:18:37.922Z,7.76
2019-01-08T00:19:37.748Z,7.66
2019-01-08T00:20:37.830Z,7.63
2019-01-08T00:21:37.690Z,7.67
2019-01-08T00:22:37.842Z,7.62
2019-01-08T00:23:37.649Z,7.62
2019-01-08T00:24:44.611Z,7.62
2019-01-08T00:25:37.566Z,7.67
2019-01-08T00:26:37.673Z,7.70
2019-01-08T00:27:37.497Z,7.73
2019-01-08T00:28:43.135Z,7.74
2019-01-08T00:29:37.433Z,7.69
2019-01-08T00:30:37.598Z,7.79
2019-01-08T00:31:37.369Z,7.74
2019-01-08T00:32:37.505Z,7.70
2019-01-08T00:33:37.314Z,7.73
2019-01-08T00:34:37.412Z,7.76
2019-01-08T00:35:37.251Z,7.69
2019-01-08T00:36:37.424Z,7.67
2019-01-08T00:37:37.179Z,7.63
2019-01-08T00:38:37.340Z,7.57
2019-01-08T00:39:37.121Z,7.57
2019-01-08T00:40:37.209Z,7.67
2019-01-08T00:41:37.058Z,7.60
2019-01-08T00:42:38.140Z,7.69
2019-01-08T00:43:36.999Z,7.67
2019-01-08T00:44:37.190Z,7.77
2019-01-08T00:45:36.947Z,7.73
2019-01-08T00:46:37.093Z,7.70
2019-01-08T00:47:36.879Z,7.67
2019-01-08T00:48:36.896Z,7.81
2019-01-08T00:49:36.835Z,7.76
2019-01-08T00:50:36.809Z,7.71
2019-01-08T00:51:36.748Z,7.84
2019-01-08T00:52:36.842Z,7.88
2019-01-08T00:53:36.690Z,7.82
2019-01-08T00:54:36.732Z,7.81
2019-01-08T00:55:36.675Z,7.86
2019-01-08T00:56:36.635Z,7.91
2019-01-08T00:57:36.581Z,7.71
2019-01-08T00:58:36.560Z,7.82
2019-01-08T00:59:36.510Z,7.82
2019-01-08T01:00:36.571Z,7.84
2019-01-08T01:01:36.442Z,7.82
2019-01-08T01:02:36.519Z,7.85
2019-01-08T01:03:36.373Z,7.82
2019-01-08T01:04:36.396Z,7.79
2019-01-08T01:05:36.325Z,7.86
2019-01-08T01:06:36.409Z,7.81
2019-01-08T01:07:36.247Z,7.88
2019-01-08T01:08:36.318Z,7.79
2019-01-08T01:09:36.193Z,7.85
2019-01-08T01:10:36.229Z,7.81
2019-01-08T01:11:36.117Z,7.81
2019-01-08T01:12:36.140Z,7.71
2019-01-08T01:13:36.069Z,7.77
2019-01-08T01:14:36.158Z,7.76
2019-01-08T01:15:36.007Z,7.69
2019-01-08T01:16:36.064Z,7.69
2019-01-08T01:17:35.946Z,7.69
2019-01-08T01:18:35.981Z,7.63
2019-01-08T01:19:35.873Z,7.60
2019-01-08T01:20:35.931Z,7.71
2019-01-08T01:21:35.813Z,7.66
2019-01-08T01:22:35.945Z,7.63
2019-01-08T01:23:35.757Z,7.57
2019-01-08T01:24:35.855Z,7.62
2019-01-08T01:25:35.699Z,7.60
2019-01-08T01:26:35.775Z,7.62
2019-01-08T01:27:35.627Z,7.62
2019-01-08T01:28:35.788Z,7.58
2019-01-08T01:29:35.561Z,7.51
2019-01-08T01:30:35.701Z,7.51
2019-01-08T01:31:35.503Z,7.52
2019-01-08T01:32:35.625Z,7.50
2019-01-08T01:33:35.437Z,7.52
2019-01-08T01:34:35.461Z,7.51
2019-01-08T01:35:35.369Z,7.42
2019-01-08T01:36:35.475Z,7.44
2019-01-08T01:37:35.343Z,7.45
2019-01-08T01:38:36.451Z,7.50
2019-01-08T01:39:35.251Z,7.45
2019-01-08T01:40:42.049Z,7.42
2019-01-08T01:41:35.193Z,7.44
2019-01-08T01:42:36.235Z,7.30
2019-01-08T01:43:35.133Z,7.45
2019-01-08T01:44:42.094Z,7.41
2019-01-08T01:45:35.069Z,7.44
2019-01-08T01:46:35.139Z,7.42
2019-01-08T01:47:34.999Z,7.47
2019-01-08T01:48:35.060Z,7.50
2019-01-08T01:49:34.944Z,7.45
2019-01-08T01:50:34.971Z,7.45
2019-01-08T01:51:34.882Z,7.48
2019-01-08T01:52:35.905Z,7.45
2019-01-08T01:53:34.819Z,7.50
2019-01-08T01:54:34.897Z,7.51
2019-01-08T01:55:34.749Z,7.51
2019-01-08T01:56:34.815Z,7.51
2019-01-08T01:57:34.698Z,7.48
2019-01-08T01:58:34.727Z,7.45
2019-01-08T01:59:34.632Z,7.51
2019-01-08T02:00:34.732Z,7.54
2019-01-08T02:01:34.569Z,7.52
2019-01-08T02:02:34.642Z,7.63
2019-01-08T02:03:34.503Z,7.62
2019-01-08T02:04:35.587Z,7.66
2019-01-08T02:05:34.452Z,7.60
2019-01-08T02:06:34.463Z,7.62
2019-01-08T02:07:34.384Z,7.60
2019-01-08T02:08:36.433Z,7.73
2019-01-08T02:09:34.321Z,7.74
2019-01-08T02:10:34.388Z,7.82
2019-01-08T02:11:34.254Z,7.82
2019-01-08T02:12:34.297Z,7.71
2019-01-08T02:13:34.197Z,7.77
2019-01-08T02:14:34.200Z,7.67
2019-01-08T02:15:34.129Z,7.70
2019-01-08T02:16:35.228Z,7.71
2019-01-08T02:17:34.071Z,7.66
2019-01-08T02:18:34.108Z,7.71
2019-01-08T02:19:34.009Z,7.69
2019-01-08T02:20:34.041Z,7.76
2019-01-08T02:21:33.947Z,7.74
2019-01-08T02:22:34.957Z,7.86
2019-01-08T02:23:33.885Z,7.81
2019-01-08T02:24:33.941Z,7.82
2019-01-08T02:25:33.822Z,7.82
2019-01-08T02:26:33.855Z,7.81
2019-01-08T02:27:33.758Z,7.85
2019-01-08T02:28:33.764Z,7.77
2019-01-08T02:29:33.716Z,7.77
2019-01-08T02:30:33.779Z,7.76
2019-01-08T02:31:33.637Z,7.73
2019-01-08T02:32:33.693Z,7.73
2019-01-08T02:33:33.574Z,7.81
2019-01-08T02:34:33.601Z,7.81
2019-01-08T02:35:33.519Z,7.77
2019-01-08T02:36:33.616Z,7.81
2019-01-08T02:37:33.456Z,7.86
2019-01-08T02:38:33.584Z,7.84
2019-01-08T02:39:33.394Z,7.77
2019-01-08T02:40:33.498Z,7.76
2019-01-08T02:41:33.487Z,7.76
2019-01-08T02:42:33.415Z,7.81
2019-01-08T02:43:33.266Z,7.79
2019-01-08T02:44:33.518Z,7.70
2019-01-08T02:45:33.197Z,7.76
2019-01-08T02:46:33.419Z,7.76
2019-01-08T02:47:33.136Z,7.79
2019-01-08T02:48:33.198Z,7.77
2019-01-08T02:49:33.072Z,7.71
2019-01-08T02:50:33.102Z,7.73
2019-01-08T02:51:33.011Z,7.76
2019-01-08T02:52:33.116Z,7.60
2019-01-08T02:53:32.949Z,7.63
2019-01-08T02:54:33.048Z,7.62
2019-01-08T02:55:32.884Z,7.60
2019-01-08T02:56:32.936Z,7.70
2019-01-08T02:57:32.830Z,7.66
2019-01-08T02:58:32.848Z,7.67
2019-01-08T02:59:32.764Z,7.66
2019-01-08T03:00:32.872Z,7.70
2019-01-08T03:01:32.698Z,7.57
2019-01-08T03:02:32.775Z,7.57
2019-01-08T03:03:32.635Z,7.62
2019-01-08T03:04:32.704Z,7.63
2019-01-08T03:05:32.587Z,7.67
2019-01-08T03:06:32.597Z,7.66
2019-01-08T03:07:32.513Z,7.62
2019-01-08T03:08:32.619Z,7.57
2019-01-08T03:09:32.453Z,7.55
2019-01-08T03:10:32.525Z,7.57
2019-01-08T03:11:32.391Z,7.57
2019-01-08T03:12:32.431Z,7.54
2019-01-08T03:13:32.330Z,7.52
2019-01-08T03:14:32.469Z,7.52
2019-01-08T03:15:32.263Z,7.51
2019-01-08T03:16:32.352Z,7.41
2019-01-08T03:17:32.208Z,7.50
2019-01-08T03:18:32.270Z,7.39
2019-01-08T03:19:32.139Z,7.44
2019-01-08T03:20:32.175Z,7.45
2019-01-08T03:21:32.084Z,7.45
2019-01-08T03:22:32.188Z,7.45
2019-01-08T03:23:32.018Z,7.42
2019-01-08T03:24:32.108Z,7.37
2019-01-08T03:25:31.954Z,7.41
2019-01-08T03:26:32.039Z,7.36
2019-01-08T03:27:31.887Z,7.27
2019-01-08T03:28:31.942Z,7.34
2019-01-08T03:29:33.664Z,7.29
2019-01-08T03:30:31.945Z,7.23
2019-01-08T03:31:31.780Z,7.32
2019-01-08T03:32:31.853Z,7.24
2019-01-08T03:33:31.732Z,7.32
2019-01-08T03:34:31.749Z,7.24
2019-01-08T03:35:31.651Z,7.27
2019-01-08T03:36:31.667Z,7.12
2019-01-08T03:37:31.580Z,7.29
2019-01-08T03:38:31.686Z,7.19
2019-01-08T03:39:31.516Z,7.26
2019-01-08T03:40:31.596Z,7.21
2019-01-08T03:41:31.462Z,7.24
2019-01-08T03:42:31.499Z,7.21
2019-01-08T03:43:31.394Z,7.14
2019-01-08T03:44:31.508Z,7.24
2019-01-08T03:45:31.338Z,7.15
2019-01-08T03:46:31.418Z,7.19
2019-01-08T03:47:31.277Z,7.23
2019-01-08T03:48:31.336Z,7.16
2019-01-08T03:49:31.200Z,7.19
2019-01-08T03:50:31.235Z,7.24
2019-01-08T03:51:31.148Z,7.15
2019-01-08T03:52:31.265Z,7.14
2019-01-08T03:53:33.149Z,7.12
2019-01-08T03:54:31.193Z,7.16
2019-01-08T03:55:31.049Z,7.16
2019-01-08T03:56:32.114Z,7.14
2019-01-08T03:57:30.954Z,7.19
2019-01-08T03:58:33.040Z,7.14
2019-01-08T03:59:30.894Z,7.15
2019-01-08T04:00:31.928Z,7.14
2019-01-08T04:01:30.831Z,7.18
2019-01-08T04:02:30.913Z,7.11
2019-01-08T04:03:30.762Z,7.05
2019-01-08T04:04:30.819Z,7.01
2019-01-08T04:05:30.723Z,7.11
2019-01-08T04:06:30.741Z,7.11
2019-01-08T04:07:30.644Z,7.16
2019-01-08T04:08:30.753Z,7.14
2019-01-08T04:09:30.597Z,7.12
2019-01-08T04:10:30.671Z,7.24
2019-01-08T04:11:30.523Z,7.14
2019-01-08T04:12:32.630Z,7.12
2019-01-08T04:13:30.464Z,7.16
2019-01-08T04:14:30.585Z,7.09
2019-01-08T04:15:30.405Z,7.14
2019-01-08T04:16:30.491Z,7.15
2019-01-08T04:17:30.332Z,7.15
2019-01-08T04:18:30.449Z,7.18
2019-01-08T04:19:30.282Z,7.15
2019-01-08T04:20:30.378Z,7.16
2019-01-08T04:21:30.244Z,7.14
2019-01-08T04:22:30.388Z,7.16
2019-01-08T04:23:30.152Z,7.14
2019-01-08T04:24:30.295Z,7.18
2019-01-08T04:25:30.083Z,7.16
2019-01-08T04:26:30.209Z,7.21
2019-01-08T04:27:30.039Z,7.16
2019-01-08T04:28:30.118Z,7.16
2019-01-08T04:29:29.961Z,7.08
2019-01-08T04:30:30.132Z,7.08
2019-01-08T04:31:29.899Z,7.07
2019-01-08T04:32:29.980Z,7.04
2019-01-08T04:33:29.828Z,7.05
2019-01-08T04:34:29.887Z,7.04
2019-01-08T04:35:29.771Z,7.09
2019-01-08T04:36:29.798Z,7.00
2019-01-08T04:37:29.710Z,7.05
2019-01-08T04:38:29.824Z,6.91
2019-01-08T04:39:29.652Z,6.90
2019-01-08T04:40:31.558Z,6.83
2019-01-08T04:41:29.587Z,6.90
2019-01-08T04:42:29.596Z,6.89
2019-01-08T04:43:29.516Z,6.89
2019-01-08T04:44:29.652Z,6.83
2019-01-08T04:45:29.470Z,6.86
2019-01-08T04:46:29.427Z,6.76
2019-01-08T04:47:29.403Z,6.75
2019-01-08T04:48:29.386Z,6.72
2019-01-08T04:49:29.348Z,6.72
2019-01-08T04:50:29.309Z,6.69
2019-01-08T04:51:29.300Z,6.78
2019-01-08T04:52:30.573Z,6.76
2019-01-08T04:53:29.215Z,6.73
2019-01-08T04:54:29.178Z,6.71
2019-01-08T04:55:29.148Z,6.58
2019-01-08T04:56:29.132Z,6.64
2019-01-08T04:57:29.086Z,6.57
2019-01-08T04:58:29.080Z,6.65
2019-01-08T04:59:29.047Z,6.64
2019-01-08T05:00:29.001Z,6.57
2019-01-08T05:01:28.960Z,6.64
2019-01-08T05:02:28.956Z,6.68
2019-01-08T05:03:28.902Z,6.61
2019-01-08T05:04:28.890Z,6.58
2019-01-08T05:05:28.836Z,6.60
2019-01-08T05:06:28.807Z,6.54
2019-01-08T05:07:28.784Z,6.60
2019-01-08T05:08:28.752Z,6.51
2019-01-08T05:09:28.732Z,6.43
2019-01-08T05:10:28.697Z,6.48
2019-01-08T05:11:28.840Z,6.46
2019-01-08T05:12:28.665Z,6.40
2019-01-08T05:13:28.588Z,6.32
2019-01-08T05:14:28.590Z,6.36
2019-01-08T05:15:28.538Z,6.35
2019-01-08T05:16:28.500Z,6.32
2019-01-08T05:17:28.467Z,6.33
2019-01-08T05:18:28.587Z,6.35
2019-01-08T05:19:28.398Z,6.30
2019-01-08T05:20:28.531Z,6.19
2019-01-08T05:21:28.369Z,6.28
2019-01-08T05:22:28.512Z,6.30
2019-01-08T05:23:28.285Z,6.33
2019-01-08T05:24:28.424Z,6.33
2019-01-08T05:25:28.214Z,6.48
2019-01-08T05:26:29.351Z,6.43
2019-01-08T05:27:28.159Z,6.42
2019-01-08T05:28:28.248Z,6.46
2019-01-08T05:29:28.086Z,6.43
2019-01-08T05:30:28.264Z,6.51
2019-01-08T05:31:28.030Z,6.53
2019-01-08T05:32:28.172Z,6.57
2019-01-08T05:33:27.989Z,6.60
2019-01-08T05:34:28.083Z,6.65
2019-01-08T05:35:27.900Z,6.69
2019-01-08T05:36:28.030Z,6.57
2019-01-08T05:37:27.844Z,6.65
2019-01-08T05:38:28.015Z,6.71
2019-01-08T05:39:27.787Z,6.69
2019-01-08T05:40:27.904Z,6.72
2019-01-08T05:41:27.737Z,6.71
2019-01-08T05:42:27.807Z,6.79
2019-01-08T05:43:27.666Z,6.73
2019-01-08T05:44:27.840Z,6.73
2019-01-08T05:45:27.593Z,6.68
2019-01-08T05:46:27.734Z,6.72
2019-01-08T05:47:27.575Z,6.73
2019-01-08T05:48:27.653Z,6.69
2019-01-08T05:49:27.486Z,6.71
2019-01-08T05:50:27.555Z,6.68
2019-01-08T05:51:27.411Z,6.78
2019-01-08T05:52:27.578Z,6.64
2019-01-08T05:53:27.350Z,6.72
2019-01-08T05:54:27.482Z,6.64
2019-01-08T05:55:27.278Z,6.65
2019-01-08T05:56:28.425Z,6.76
2019-01-08T05:57:27.250Z,6.57
2019-01-08T05:58:27.305Z,6.71
2019-01-08T05:59:27.168Z,6.72
2019-01-08T06:00:27.321Z,6.65
2019-01-08T06:01:27.154Z,6.82
2019-01-08T06:02:27.260Z,6.79
2019-01-08T06:03:27.033Z,6.73
2019-01-08T06:04:27.156Z,6.75
2019-01-08T06:05:27.057Z,6.86
2019-01-08T06:06:27.053Z,6.72
2019-01-08T06:07:26.915Z,6.69
2019-01-08T06:08:27.082Z,6.76
2019-01-08T06:09:26.852Z,6.72
2019-01-08T06:10:26.995Z,6.76
2019-01-08T06:11:26.780Z,6.69
2019-01-08T06:12:26.885Z,6.71
2019-01-08T06:13:26.716Z,6.75
2019-01-08T06:14:26.800Z,6.79
2019-01-08T06:15:26.664Z,6.81
2019-01-08T06:16:26.624Z,6.83
2019-01-08T06:17:26.636Z,6.91
2019-01-08T06:18:26.576Z,6.83
2019-01-08T06:19:26.639Z,6.87
2019-01-08T06:20:26.505Z,6.86
2019-01-08T06:21:26.480Z,6.91
2019-01-08T06:22:26.429Z,6.91
2019-01-08T06:23:26.418Z,6.86
2019-01-08T06:24:26.370Z,6.87
2019-01-08T06:25:26.353Z,6.90
2019-01-08T06:26:26.348Z,6.83
2019-01-08T06:27:26.300Z,6.90
2019-01-08T06:28:26.247Z,6.90
2019-01-08T06:29:26.247Z,6.89
2019-01-08T06:30:26.209Z,6.86
2019-01-08T06:31:26.165Z,6.90
2019-01-08T06:32:26.123Z,6.90
2019-01-08T06:33:26.108Z,6.93
2019-01-08T06:34:26.070Z,7.00
2019-01-08T06:35:26.038Z,6.93
2019-01-08T06:36:26.290Z,6.96
2019-01-08T06:37:25.969Z,6.94
2019-01-08T06:38:25.974Z,6.97
2019-01-08T06:39:25.946Z,7.00
2019-01-08T06:40:25.888Z,6.96
2019-01-08T06:41:25.995Z,6.97
2019-01-08T06:42:25.838Z,6.97
2019-01-08T06:43:26.000Z,6.93
2019-01-08T06:44:26.235Z,6.99
2019-01-08T06:45:25.785Z,6.94
2019-01-08T06:46:25.688Z,6.94
2019-01-08T06:47:25.701Z,6.90
2019-01-08T06:48:25.649Z,6.96
2019-01-08T06:49:25.693Z,6.96
2019-01-08T06:50:25.571Z,6.97
2019-01-08T06:51:25.648Z,6.99
2019-01-08T06:52:25.532Z,6.97
2019-01-08T06:53:25.572Z,7.09
2019-01-08T06:54:25.466Z,7.04
2019-01-08T06:55:25.476Z,6.97
2019-01-08T06:56:25.382Z,7.01
2019-01-08T06:57:25.377Z,7.01
2019-01-08T06:58:25.308Z,7.00
2019-01-08T06:59:25.394Z,7.09
2019-01-08T07:00:32.985Z,7.07
2019-01-08T07:01:25.300Z,7.12
2019-01-08T07:02:25.188Z,7.14
2019-01-08T07:03:25.215Z,7.08
2019-01-08T07:04:25.125Z,7.07
2019-01-08T07:05:25.125Z,7.01
2019-01-08T07:06:25.078Z,7.11
2019-01-08T07:07:26.061Z,7.09
2019-01-08T07:08:25.015Z,7.05
2019-01-08T07:09:25.049Z,7.14
2019-01-08T07:10:24.948Z,7.12
2019-01-08T07:11:25.013Z,7.14
2019-01-08T07:12:24.882Z,7.14
2019-01-08T07:13:24.924Z,7.11
2019-01-08T07:14:24.835Z,7.08
2019-01-08T07:15:24.837Z,7.05
2019-01-08T07:16:24.764Z,7.08
2019-01-08T07:17:24.750Z,7.07
2019-01-08T07:18:24.700Z,7.09
2019-01-08T07:19:24.777Z,7.05
2019-01-08T07:20:24.643Z,7.09
2019-01-08T07:21:24.672Z,7.08
2019-01-08T07:22:24.573Z,7.07
2019-01-08T07:23:24.597Z,7.05
2019-01-08T07:24:24.508Z,7.09
2019-01-08T07:25:24.553Z,7.12
2019-01-08T07:26:24.467Z,7.12
2019-01-08T07:27:24.541Z,7.19
2019-01-08T07:28:24.379Z,7.12
2019-01-08T07:29:24.366Z,7.09
2019-01-08T07:30:24.319Z,7.18
2019-01-08T07:31:24.324Z,7.15
2019-01-08T07:32:24.260Z,7.15
2019-01-08T07:33:24.214Z,7.18
2019-01-08T07:34:24.561Z,7.14
2019-01-08T07:35:24.151Z,7.18
2019-01-08T07:36:24.162Z,7.23
2019-01-08T07:37:24.105Z,7.14
2019-01-08T07:38:24.179Z,7.19
2019-01-08T07:39:24.033Z,7.26
2019-01-08T07:40:24.081Z,7.19
2019-01-08T07:41:23.980Z,7.16
2019-01-08T07:42:24.009Z,7.14
2019-01-08T07:43:23.907Z,7.18
2019-01-08T07:44:23.920Z,7.18
2019-01-08T07:45:23.872Z,7.19
2019-01-08T07:46:24.962Z,7.14
2019-01-08T07:47:23.823Z,7.16
2019-01-08T07:48:24.875Z,7.27
2019-01-08T07:49:23.740Z,7.19
2019-01-08T07:50:23.779Z,7.18
2019-01-08T07:51:23.678Z,7.21
2019-01-08T07:52:23.826Z,7.09
2019-01-08T07:53:23.621Z,7.16
2019-01-08T07:54:23.703Z,7.04
2019-01-08T07:55:23.545Z,7.08
2019-01-08T07:56:23.578Z,7.11
2019-01-08T07:57:23.466Z,7.07
2019-01-08T07:58:23.489Z,7.12
2019-01-08T07:59:23.423Z,7.08
2019-01-08T08:00:23.405Z,7.12
2019-01-08T08:01:23.355Z,7.09
2019-01-08T08:02:23.427Z,7.15
2019-01-08T08:03:23.291Z,7.08
2019-01-08T08:04:23.336Z,7.12
2019-01-08T08:05:23.220Z,7.08
2019-01-08T08:06:23.282Z,7.14
2019-01-08T08:07:23.164Z,7.12
2019-01-08T08:08:23.160Z,7.15
2019-01-08T08:09:23.125Z,7.18
2019-01-08T08:10:23.165Z,7.18
2019-01-08T08:11:23.055Z,7.21
2019-01-08T08:12:24.107Z,7.16
2019-01-08T08:13:22.984Z,7.23
2019-01-08T08:14:22.992Z,7.15
2019-01-08T08:15:22.940Z,7.29
2019-01-08T08:16:23.941Z,7.12
2019-01-08T08:17:22.854Z,7.15
2019-01-08T08:18:22.924Z,7.12
2019-01-08T08:19:22.820Z,7.05
2019-01-08T08:20:22.851Z,7.11
2019-01-08T08:21:22.758Z,7.01
2019-01-08T08:22:22.802Z,7.09
2019-01-08T08:23:22.659Z,7.07
2019-01-08T08:24:22.646Z,7.04
2019-01-08T08:25:22.609Z,6.99
2019-01-08T08:26:22.646Z,6.96
2019-01-08T08:27:22.551Z,6.89
2019-01-08T08:28:22.546Z,6.91
2019-01-08T08:29:22.470Z,6.90
2019-01-08T08:30:22.463Z,6.87
2019-01-08T08:31:22.421Z,6.83
2019-01-08T08:32:22.489Z,6.83
2019-01-08T08:33:22.349Z,6.81
2019-01-08T08:34:22.468Z,6.79
2019-01-08T08:35:22.293Z,6.83
2019-01-08T08:36:22.299Z,6.76
2019-01-08T08:37:22.219Z,6.79
2019-01-08T08:38:22.221Z,6.78
2019-01-08T08:39:22.185Z,6.79
2019-01-08T08:40:22.230Z,6.87
2019-01-08T08:41:22.109Z,6.79
2019-01-08T08:42:22.140Z,6.81
2019-01-08T08:43:22.035Z,6.72
2019-01-08T08:44:22.046Z,6.83
2019-01-08T08:45:21.976Z,6.76
2019-01-08T08:46:21.955Z,6.87
2019-01-08T08:47:21.905Z,6.72
2019-01-08T08:48:21.983Z,6.78
2019-01-08T08:49:21.872Z,6.81
2019-01-08T08:50:21.886Z,6.86
2019-01-08T08:51:21.790Z,6.82
2019-01-08T08:52:21.802Z,6.81
2019-01-08T08:53:21.733Z,6.82
2019-01-08T08:54:21.715Z,6.82
2019-01-08T08:55:21.663Z,6.75
2019-01-08T08:56:21.715Z,6.87
2019-01-08T08:57:21.596Z,6.75
2019-01-08T08:58:21.654Z,6.78
2019-01-08T08:59:21.528Z,6.76
2019-01-08T09:00:21.610Z,6.72
2019-01-08T09:01:21.467Z,6.76
2019-01-08T09:02:21.512Z,6.68
2019-01-08T09:03:21.420Z,6.63
2019-01-08T09:04:21.431Z,6.58
2019-01-08T09:05:21.352Z,6.61
2019-01-08T09:06:21.340Z,6.61
2019-01-08T09:07:21.283Z,6.65
2019-01-08T09:08:21.400Z,6.58
2019-01-08T09:09:21.229Z,6.68
2019-01-08T09:10:21.270Z,6.55
2019-01-08T09:11:21.164Z,6.50
2019-01-08T09:12:21.184Z,6.50
2019-01-08T09:13:21.099Z,6.50
2019-01-08T09:14:21.092Z,6.46
2019-01-08T09:15:21.049Z,6.46
2019-01-08T09:16:22.024Z,6.40
2019-01-08T09:17:20.969Z,6.48
2019-01-08T09:18:21.018Z,6.39
2019-01-08T09:19:20.916Z,6.39
2019-01-08T09:20:20.924Z,6.42
2019-01-08T09:21:20.858Z,6.42
2019-01-08T09:22:20.838Z,6.40
2019-01-08T09:23:20.798Z,6.46
2019-01-08T09:24:20.875Z,6.36
2019-01-08T09:25:20.752Z,6.43
2019-01-08T09:26:20.871Z,6.46
2019-01-08T09:27:20.670Z,6.48
2019-01-08T09:28:20.700Z,6.43
2019-01-08T09:29:20.614Z,6.46
2019-01-08T09:30:22.647Z,6.54
2019-01-08T09:31:20.554Z,6.54
2019-01-08T09:32:20.621Z,6.63
2019-01-08T09:33:20.516Z,6.71
2019-01-08T09:34:21.548Z,6.68
2019-01-08T09:35:20.424Z,6.58
2019-01-08T09:36:20.443Z,6.69
2019-01-08T09:37:20.342Z,6.73
2019-01-08T09:38:20.434Z,6.72
2019-01-08T09:39:20.293Z,6.69
2019-01-08T09:40:20.375Z,6.76
2019-01-08T09:41:20.233Z,6.71
2019-01-08T09:42:20.251Z,6.69
2019-01-08T09:43:20.169Z,6.79
2019-01-08T09:44:20.157Z,6.78
2019-01-08T09:45:20.094Z,6.79
2019-01-08T09:46:20.076Z,6.93
2019-01-08T09:47:20.032Z,6.81
2019-01-08T09:48:20.016Z,6.86
2019-01-08T09:49:19.994Z,6.83
2019-01-08T09:50:19.942Z,6.81
2019-01-08T09:51:19.902Z,6.81
2019-01-08T09:52:19.950Z,6.90
2019-01-08T09:53:19.909Z,6.90
2019-01-08T09:54:19.880Z,6.99
2019-01-08T09:55:19.804Z,6.91
2019-01-08T09:56:19.754Z,7.04
2019-01-08T09:57:19.743Z,6.99
2019-01-08T09:58:19.795Z,7.04
2019-01-08T09:59:19.659Z,7.09
2019-01-08T10:00:19.644Z,7.04
2019-01-08T10:01:23.977Z,7.05
2019-01-08T10:02:19.615Z,7.01
2019-01-08T10:03:19.548Z,7.11
2019-01-08T10:04:19.521Z,7.16
2019-01-08T10:05:19.490Z,7.14
2019-01-08T10:06:19.540Z,7.12
2019-01-08T10:07:19.441Z,7.12
2019-01-08T10:08:19.464Z,7.19
2019-01-08T10:09:19.378Z,7.27
2019-01-08T10:10:19.380Z,7.30
2019-01-08T10:11:19.327Z,7.39
2019-01-08T10:12:19.424Z,7.29
2019-01-08T10:13:19.257Z,7.30
2019-01-08T10:14:21.276Z,7.33
2019-01-08T10:15:19.201Z,7.48
2019-01-08T10:16:19.251Z,7.39
2019-01-08T10:17:19.097Z,7.42
2019-01-08T10:18:19.087Z,7.41
2019-01-08T10:19:19.073Z,7.42
2019-01-08T10:20:19.015Z,7.48
2019-01-08T10:21:18.969Z,7.47
2019-01-08T10:22:18.976Z,7.50
2019-01-08T10:23:18.916Z,7.45
2019-01-08T10:24:18.950Z,7.48
2019-01-08T10:25:18.852Z,7.47
2019-01-08T10:26:18.826Z,7.48
2019-01-08T10:27:18.791Z,7.45
2019-01-08T10:28:18.779Z,7.50
2019-01-08T10:29:18.738Z,7.45
2019-01-08T10:30:18.707Z,7.47
2019-01-08T10:31:18.667Z,7.47
2019-01-08T10:32:18.662Z,7.47
2019-01-08T10:33:18.609Z,7.50
2019-01-08T10:34:18.582Z,7.47
2019-01-08T10:35:18.556Z,7.57
2019-01-08T10:36:18.528Z,7.58
2019-01-08T10:37:18.490Z,7.67
2019-01-08T10:38:18.456Z,7.62
2019-01-08T10:39:18.434Z,7.63
2019-01-08T10:40:18.401Z,7.60
2019-01-08T10:41:18.359Z,7.81
2019-01-08T10:42:18.341Z,7.79
2019-01-08T10:43:18.302Z,7.70
2019-01-08T10:44:18.274Z,7.85
2019-01-08T10:45:20.244Z,7.79
2019-01-08T10:46:18.200Z,7.84
2019-01-08T10:47:18.182Z,7.73
2019-01-08T10:48:18.178Z,7.74
2019-01-08T10:49:18.191Z,7.79
2019-01-08T10:50:18.085Z,7.81
2019-01-08T10:51:18.104Z,7.76
2019-01-08T10:52:18.015Z,7.71
2019-01-08T10:53:18.042Z,7.62
2019-01-08T10:54:17.956Z,7.57
2019-01-08T10:55:18.020Z,7.47
2019-01-08T10:56:17.902Z,7.42
2019-01-08T10:57:17.926Z,7.34
2019-01-08T10:58:17.821Z,7.44
2019-01-08T10:59:17.835Z,7.50
2019-01-08T11:00:17.770Z,7.34
2019-01-08T11:01:17.749Z,7.39
2019-01-08T11:02:17.708Z,7.44
2019-01-08T11:03:17.763Z,7.42
2019-01-08T11:04:17.648Z,7.47
2019-01-08T11:05:17.681Z,7.37
2019-01-08T11:06:17.575Z,7.44
2019-01-08T11:07:17.588Z,7.51
2019-01-08T11:08:17.515Z,7.57
2019-01-08T11:09:17.506Z,7.67
2019-01-08T11:10:17.456Z,7.73
2019-01-08T11:11:17.516Z,7.70
2019-01-08T11:12:17.397Z,7.70
2019-01-08T11:13:17.423Z,7.73
2019-01-08T11:14:17.332Z,7.77
2019-01-08T11:15:17.378Z,7.67
2019-01-08T11:16:17.270Z,7.69
2019-01-08T11:17:17.245Z,7.71
2019-01-08T11:18:17.208Z,7.66
2019-01-08T11:19:17.281Z,7.55
2019-01-08T11:20:17.152Z,7.50
2019-01-08T11:21:17.126Z,7.39
2019-01-08T11:22:17.087Z,7.32
2019-01-08T11:23:23.638Z,7.32
2019-01-08T11:24:17.031Z,7.24
2019-01-08T11:25:17.036Z,7.33
2019-01-08T11:26:16.976Z,7.23
2019-01-08T11:27:18.013Z,7.27
2019-01-08T11:28:16.901Z,7.32
2019-01-08T11:29:16.889Z,7.26
2019-01-08T11:30:16.846Z,7.44
2019-01-08T11:31:25.643Z,7.37
2019-01-08T11:32:16.827Z,7.27
2019-01-08T11:33:16.755Z,7.29
2019-01-08T11:34:16.790Z,7.34
2019-01-08T11:35:18.753Z,7.37
2019-01-08T11:36:16.678Z,7.23
2019-01-08T11:37:18.697Z,7.23
2019-01-08T11:38:16.625Z,7.30
2019-01-08T11:39:16.644Z,7.26
2019-01-08T11:40:17.515Z,7.29
2019-01-08T11:41:16.544Z,7.27
2019-01-08T11:42:16.477Z,7.16
2019-01-08T11:43:17.478Z,7.18
2019-01-08T11:44:16.428Z,7.18
2019-01-08T11:45:16.488Z,7.12
2019-01-08T11:46:16.346Z,7.12
2019-01-08T11:47:16.396Z,7.24
2019-01-08T11:48:16.280Z,7.26
2019-01-08T11:49:16.300Z,7.32
2019-01-08T11:50:16.247Z,7.37
2019-01-08T11:51:16.424Z,7.39
2019-01-08T11:52:16.171Z,7.50
2019-01-08T11:53:17.235Z,7.54
2019-01-08T11:54:16.107Z,7.55
2019-01-08T11:55:17.087Z,7.67
2019-01-08T11:56:16.040Z,7.81
2019-01-08T11:57:17.040Z,7.79
2019-01-08T11:58:15.992Z,7.82
2019-01-08T11:59:15.968Z,7.92
2019-01-08T12:00:15.932Z,7.94
2019-01-08T12:01:17.909Z,8.02
2019-01-08T12:02:15.864Z,8.06
2019-01-08T12:03:16.908Z,8.07
2019-01-08T12:04:15.795Z,8.20
2019-01-08T12:05:37.763Z,8.18
2019-01-08T12:06:15.731Z,8.22
2019-01-08T12:07:30.943Z,8.20
2019-01-08T12:08:15.706Z,8.18
2019-01-08T12:09:39.164Z,8.27
2019-01-08T12:10:15.616Z,8.24
2019-01-08T12:11:15.583Z,8.25
2019-01-08T12:12:15.618Z,8.22
2019-01-08T12:13:15.521Z,8.31
2019-01-08T12:14:15.517Z,8.21
2019-01-08T12:15:15.471Z,8.27
2019-01-08T12:16:15.432Z,8.14
2019-01-08T12:17:15.391Z,8.17
2019-01-08T12:18:15.399Z,8.12
2019-01-08T12:19:15.342Z,8.20
2019-01-08T12:20:15.310Z,8.14
2019-01-08T12:21:15.316Z,8.13
2019-01-08T12:22:15.248Z,8.10
2019-01-08T12:23:15.219Z,8.17
2019-01-08T12:24:15.196Z,8.12
2019-01-08T12:25:15.170Z,8.06
2019-01-08T12:26:15.139Z,8.06
2019-01-08T12:27:15.111Z,7.99
2019-01-08T12:28:15.067Z,7.99
2019-01-08T12:29:15.056Z,7.99
2019-01-08T12:30:15.031Z,8.03
2019-01-08T12:31:14.975Z,8.06
2019-01-08T12:32:14.934Z,8.03
2019-01-08T12:33:14.896Z,8.06
2019-01-08T12:34:23.656Z,8.13
2019-01-08T12:35:14.836Z,8.10
2019-01-08T12:46:20.861Z,8.13
2019-01-08T12:47:21.859Z,8.22
2019-01-08T12:48:20.792Z,8.28
2019-01-08T12:49:20.865Z,8.17
2019-01-08T12:50:20.711Z,7.99
2019-01-08T12:51:21.789Z,8.07
2019-01-08T12:52:20.647Z,7.99
2019-01-08T12:53:20.668Z,7.84
2019-01-08T12:54:20.584Z,7.88
2019-01-08T12:55:20.582Z,7.92
2019-01-08T12:56:20.530Z,7.99
2019-01-08T12:57:20.590Z,8.03
2019-01-08T12:58:20.486Z,8.10
2019-01-08T12:59:20.555Z,8.13
2019-01-08T13:00:20.409Z,8.27
2019-01-08T13:01:56.309Z,8.21
2019-01-08T13:02:20.339Z,8.32
2019-01-08T13:21:28.382Z,8.36
2019-01-08T13:22:15.892Z,8.36
2019-01-08T13:23:36.863Z,8.28
2019-01-08T13:24:15.810Z,8.20
2019-01-08T13:32:06.481Z,7.60
2019-01-08T13:33:06.422Z,7.14
2019-01-08T13:34:07.445Z,7.00
2019-01-08T13:35:06.364Z,6.96
2019-01-08T13:36:13.281Z,6.99
2019-01-08T13:37:06.305Z,7.09
2019-01-08T13:38:12.897Z,7.18
2019-01-08T13:39:06.263Z,7.30
2019-01-08T13:40:06.338Z,7.32
2019-01-08T13:41:06.186Z,7.29
2019-01-08T13:42:13.843Z,7.42
2019-01-08T13:43:06.118Z,7.39
2019-01-08T13:44:28.097Z,7.42
2019-01-08T13:45:06.072Z,7.57
2019-01-08T13:46:06.021Z,7.48
2019-01-08T13:47:43.878Z,7.54
2019-01-08T13:48:05.970Z,7.66
2019-01-08T13:49:05.935Z,7.55
2019-01-08T13:50:12.894Z,7.45
2019-01-08T13:51:05.869Z,7.44
2019-01-08T13:52:05.846Z,7.44
2019-01-08T13:53:05.896Z,7.33